createdAt,value
2016-03-14T10:12:56.486Z,1.56
2016-03-14T10:13:56.177Z,1.6
2016-03-14T10:14:56.164Z,1.57
2016-03-14T10:15:56.244Z,1.72
2016-03-14T10:16:56.138Z,1.84
2016-03-14T10:17:57.156Z,1.9
2016-03-14T10:18:56.221Z,1.87
2016-03-14T10:19:56.255Z,1.83
2016-03-14T10:20:56.132Z,1.93
2016-03-14T10:22:12.920Z,1.98
2016-03-14T10:23:05.763Z,1.94
2016-03-14T10:23:56.298Z,1.93
2016-03-14T10:24:56.503Z,1.93
2016-03-14T10:25:56.178Z,1.93
2016-03-14T10:26:56.149Z,1.9
2016-03-14T10:27:56.151Z,2.09
2016-03-14T10:28:56.124Z,2.04
2016-03-14T10:29:56.204Z,2.08
2016-03-14T10:30:56.082Z,2.16
2016-03-14T10:31:56.100Z,2.15
2016-03-14T10:32:56.322Z,2.11
2016-03-14T10:33:56.028Z,2.09
2016-03-14T10:34:56.140Z,2.15
2016-03-14T10:35:56.033Z,2.23
2016-03-14T10:36:56.019Z,2.34
2016-03-14T10:38:26.791Z,2.29
2016-03-14T10:38:56.041Z,2.31
2016-03-14T10:39:56.028Z,2.49
2016-03-14T10:40:55.999Z,2.51
2016-03-14T10:41:56.346Z,2.49
2016-03-14T10:43:55.977Z,2.29
2016-03-14T10:44:55.963Z,2.3
2016-03-14T10:45:55.919Z,2.44
2016-03-14T10:46:57.188Z,2.45
2016-03-14T10:47:56.049Z,2.55
2016-03-14T10:48:55.958Z,2.51
2016-03-14T10:49:55.930Z,2.54
2016-03-14T10:50:55.854Z,2.69
2016-03-14T10:51:55.826Z,2.62
2016-03-14T10:52:55.953Z,2.6
2016-03-14T10:53:56.096Z,2.62
2016-03-14T10:54:55.818Z,2.62
2016-03-14T10:55:55.820Z,2.54
2016-03-14T10:56:55.762Z,2.55
2016-03-14T10:57:55.826Z,2.59
2016-03-14T10:58:55.735Z,2.54
2016-03-14T11:00:04.300Z,2.52
2016-03-14T11:00:55.788Z,2.55
2016-03-14T11:01:55.807Z,2.52
2016-03-14T11:03:55.749Z,2.59
2016-03-14T11:04:55.596Z,2.52
2016-03-14T11:05:55.646Z,2.54
2016-03-14T11:06:55.679Z,2.67
2016-03-14T11:07:55.792Z,2.8
2016-03-14T11:08:55.545Z,2.84
2016-03-14T11:09:55.625Z,2.9
2016-03-14T11:10:55.768Z,2.91
2016-03-14T11:11:55.583Z,2.99
2016-03-14T11:13:55.589Z,2.98
2016-03-14T11:14:55.607Z,2.96
2016-03-14T11:15:55.423Z,2.99
2016-03-14T11:16:55.691Z,2.91
2016-03-14T11:17:55.584Z,3.02
2016-03-14T11:18:55.571Z,3.05
2016-03-14T11:19:55.589Z,3.03
2016-03-14T11:20:55.577Z,3.08
2016-03-14T11:21:55.536Z,3.05
2016-03-14T11:22:55.538Z,3.05
2016-03-14T11:23:56.321Z,2.96
2016-03-14T11:24:55.511Z,2.91
2016-03-14T11:25:55.546Z,2.91
2016-03-14T11:26:55.502Z,2.9
2016-03-14T11:27:55.473Z,2.99
2016-03-14T11:28:55.476Z,2.88
2016-03-14T11:29:55.525Z,2.98
2016-03-14T11:30:55.434Z,3.06
2016-03-14T11:31:55.391Z,3.09
2016-03-14T11:32:55.471Z,3.16
2016-03-14T11:33:55.505Z,3.23
2016-03-14T11:35:04.274Z,3.39
2016-03-14T11:35:55.463Z,3.45
2016-03-14T11:36:55.482Z,3.34
2016-03-14T11:37:55.250Z,3.24
2016-03-14T11:38:55.346Z,3.13
2016-03-14T11:39:55.474Z,3.13
2016-03-14T11:40:55.445Z,3.11
2016-03-14T11:41:55.433Z,3.19
2016-03-14T11:42:55.389Z,3.19
2016-03-14T11:43:55.281Z,3.26
2016-03-14T11:44:56.019Z,3.26
2016-03-14T11:45:55.287Z,3.37
2016-03-14T11:46:55.243Z,3.39
2016-03-14T11:47:55.245Z,3.23
2016-03-14T11:48:56.514Z,3.3
2016-03-14T11:50:03.767Z,3.27
2016-03-14T11:50:55.239Z,3.2
2016-03-14T11:51:55.084Z,3.2
2016-03-14T11:53:04.431Z,3.19
2016-03-14T11:53:55.152Z,3.3
2016-03-14T11:54:55.195Z,3.43
2016-03-14T11:55:55.126Z,3.45
2016-03-14T11:56:55.165Z,3.42
2016-03-14T11:57:55.111Z,3.48
2016-03-14T11:58:55.063Z,3.48
2016-03-14T11:59:54.920Z,3.53
2016-03-14T12:00:55.044Z,3.57
2016-03-14T12:02:03.793Z,3.71
2016-03-14T12:02:55.260Z,3.67
2016-03-14T12:03:54.994Z,3.82
2016-03-14T12:04:55.042Z,3.96
2016-03-14T12:05:55.105Z,4.02
2016-03-14T12:06:54.982Z,4.11
2016-03-14T12:07:55.015Z,4.17
2016-03-14T12:08:55.001Z,4.29
2016-03-14T12:09:54.940Z,4.44
2016-03-14T12:10:54.959Z,4.46
2016-03-14T12:11:54.945Z,4.5
2016-03-14T12:12:54.761Z,4.53
2016-03-14T12:13:54.809Z,4.4
2016-03-14T12:14:54.952Z,4.38
2016-03-14T12:15:54.876Z,4.28
2016-03-14T12:16:54.879Z,4.35
2016-03-14T12:18:54.883Z,4.46
2016-03-14T12:19:55.074Z,4.42
2016-03-14T12:20:54.857Z,4.56
2016-03-14T12:21:54.797Z,4.47
2016-03-14T12:22:54.721Z,4.5
2016-03-14T12:23:54.850Z,4.53
2016-03-14T12:24:54.837Z,4.53
2016-03-14T12:26:01.574Z,4.6
2016-03-14T12:26:54.717Z,4.54
2016-03-14T12:27:54.642Z,4.36
2016-03-14T12:28:54.769Z,4.3
2016-03-14T12:29:54.757Z,4.3
2016-03-14T12:30:54.760Z,4.17
2016-03-14T12:31:54.512Z,4.24
2016-03-14T12:32:54.765Z,4.21
2016-03-14T12:34:55.004Z,4.03
2016-03-14T12:35:54.709Z,3.93
2016-03-14T12:36:54.713Z,3.85
2016-03-14T12:37:54.794Z,3.74
2016-03-14T12:38:54.672Z,3.67
2016-03-14T12:39:54.675Z,3.66
2016-03-14T12:40:54.693Z,3.75
2016-03-14T12:41:54.789Z,3.63
2016-03-14T12:42:54.651Z,3.66
2016-03-14T12:43:54.622Z,3.61
2016-03-14T12:44:54.594Z,3.74
2016-03-14T12:45:55.111Z,3.84
2016-03-14T12:46:54.568Z,3.93
2016-03-14T12:47:54.586Z,3.94
2016-03-14T12:48:54.557Z,3.93
2016-03-14T12:49:54.763Z,3.93
2016-03-14T12:50:54.657Z,3.93
2016-03-14T12:51:54.519Z,3.9
2016-03-14T12:52:54.646Z,3.81
2016-03-14T12:53:54.541Z,3.63
2016-03-14T12:54:54.511Z,3.56
2016-03-14T12:55:54.451Z,3.42
2016-03-14T12:56:54.486Z,3.35
2016-03-14T12:57:54.488Z,3.21
2016-03-14T12:59:02.710Z,3.21
2016-03-14T12:59:54.571Z,3.03
2016-03-14T13:00:54.434Z,3.13
2016-03-14T13:01:54.654Z,3.01
2016-03-14T13:02:54.407Z,3.17
2016-03-14T13:03:54.473Z,3.14
2016-03-14T13:05:00.194Z,3.16
2016-03-14T13:06:02.712Z,3.27
2016-03-14T13:06:54.809Z,3.42
2016-03-14T13:07:54.264Z,3.49
2016-03-14T13:08:54.315Z,3.51
2016-03-14T13:09:54.348Z,3.48
2016-03-14T13:10:54.336Z,3.64
2016-03-14T13:11:54.401Z,3.69
2016-03-14T13:12:54.356Z,3.76
2016-03-14T13:13:54.391Z,3.71
2016-03-14T13:14:54.674Z,3.6
2016-03-14T13:15:54.396Z,3.45
2016-03-14T13:16:54.320Z,3.42
2016-03-14T13:17:54.277Z,3.37
2016-03-14T13:18:54.435Z,3.34
2016-03-14T13:19:54.344Z,3.32
2016-03-14T13:20:54.190Z,3.32
2016-03-14T13:21:54.224Z,3.32
2016-03-14T13:23:54.479Z,3.32
2016-03-14T13:24:54.186Z,3.24
2016-03-14T13:26:04.001Z,3.3
2016-03-14T13:26:54.160Z,3.29
2016-03-14T13:27:54.428Z,3.34
2016-03-14T13:28:54.119Z,3.46
2016-03-14T13:29:54.074Z,3.42
2016-03-14T13:30:54.264Z,3.43
2016-03-14T13:31:54.751Z,3.53
2016-03-14T13:32:54.098Z,3.51
2016-03-14T13:33:54.038Z,3.56
2016-03-14T13:34:54.041Z,3.4
2016-03-14T13:35:54.012Z,3.45
2016-03-14T13:36:53.999Z,3.56
2016-03-14T13:37:54.048Z,3.51
2016-03-14T13:38:54.239Z,3.48
2016-03-14T13:39:54.148Z,3.48
2016-03-14T13:40:54.025Z,3.39
2016-03-14T13:41:53.982Z,3.35
2016-03-14T13:43:02.750Z,3.45
2016-03-14T13:43:54.175Z,3.48
2016-03-14T13:44:54.036Z,3.45
2016-03-14T13:45:53.992Z,3.3
2016-03-14T13:46:54.058Z,3.39
2016-03-14T13:47:53.950Z,3.43
2016-03-14T13:48:53.922Z,3.48
2016-03-14T13:49:53.925Z,3.46
2016-03-14T13:50:53.928Z,3.49
2016-03-14T13:51:53.883Z,3.49
2016-03-14T13:53:53.888Z,3.46
2016-03-14T13:54:54.064Z,3.42
2016-03-14T13:56:02.144Z,3.39
2016-03-14T13:56:53.802Z,3.42
2016-03-14T13:57:53.868Z,3.42
2016-03-14T13:58:53.840Z,3.34
2016-03-14T13:59:53.827Z,3.42
2016-03-14T14:00:53.751Z,3.39
2016-03-14T14:01:53.832Z,3.48
2016-03-14T14:02:53.772Z,3.45
2016-03-14T14:03:53.837Z,3.49
2016-03-14T14:04:53.715Z,3.43
2016-03-14T14:05:53.749Z,3.39
2016-03-14T14:06:53.663Z,3.42
2016-03-14T14:07:55.040Z,3.46
2016-03-14T14:10:53.642Z,3.29
2016-03-14T14:11:53.645Z,3.34
2016-03-14T14:12:53.617Z,3.34
2016-03-14T14:13:53.651Z,3.48
2016-03-14T14:14:53.622Z,3.53
2016-03-14T14:15:53.625Z,3.54
2016-03-14T14:16:53.643Z,3.56
2016-03-14T14:17:53.646Z,3.74
2016-03-14T14:18:53.570Z,3.75
2016-03-14T14:20:00.947Z,3.72
2016-03-14T14:20:53.575Z,3.74
2016-03-14T14:21:53.516Z,3.79
2016-03-14T14:22:54.925Z,3.9
2016-03-14T14:23:53.615Z,3.84
2016-03-14T14:24:53.477Z,3.97
2016-03-14T14:25:53.464Z,3.92
2016-03-14T14:26:53.466Z,3.85
2016-03-14T14:28:53.456Z,3.71
2016-03-14T14:29:53.443Z,3.72
2016-03-14T14:30:53.431Z,3.71
2016-03-14T14:31:53.402Z,3.79
2016-03-14T14:32:53.390Z,3.74
2016-03-14T14:33:53.517Z,3.78
2016-03-14T14:34:53.410Z,3.72
2016-03-14T14:35:53.350Z,3.72
2016-03-14T14:36:53.353Z,3.75
2016-03-14T14:37:53.325Z,3.82
2016-03-14T14:38:53.687Z,3.82
2016-03-14T14:39:53.768Z,3.72
2016-03-14T14:40:53.395Z,3.66
2016-03-14T14:41:53.351Z,3.69
2016-03-14T14:42:53.150Z,3.67
2016-03-14T14:43:53.247Z,3.78
2016-03-14T14:44:53.265Z,3.76
2016-03-14T14:46:01.752Z,3.82
2016-03-14T14:46:53.395Z,3.76
2016-03-14T14:47:53.241Z,3.82
2016-03-14T14:48:53.276Z,3.71
2016-03-14T14:50:53.297Z,3.64
2016-03-14T14:51:53.238Z,3.61
2016-03-14T14:52:53.927Z,3.71
2016-03-14T14:54:01.508Z,3.66
2016-03-14T14:54:54.089Z,3.58
2016-03-14T14:55:53.029Z,3.56
2016-03-14T14:56:53.329Z,3.53
2016-03-14T14:57:53.128Z,3.49
2016-03-14T14:58:53.115Z,3.48
2016-03-14T14:59:53.102Z,3.51
2016-03-14T15:00:53.043Z,3.67
2016-03-14T15:01:53.061Z,3.66
2016-03-14T15:02:53.142Z,3.71
2016-03-14T15:03:53.112Z,3.72
2016-03-14T15:04:53.054Z,3.67
2016-03-14T15:05:53.040Z,3.69
2016-03-14T15:06:52.996Z,3.74
2016-03-14T15:07:53.014Z,3.69
2016-03-14T15:08:52.954Z,3.75
2016-03-14T15:09:53.004Z,3.67
2016-03-14T15:10:53.242Z,3.64
2016-03-14T15:11:59.775Z,3.64
2016-03-14T15:13:53.343Z,3.63
2016-03-14T15:14:53.017Z,3.58
2016-03-14T15:15:53.317Z,3.66
2016-03-14T15:16:53.133Z,3.66
2016-03-14T15:17:53.135Z,3.58
2016-03-14T15:18:52.997Z,3.69
2016-03-14T15:19:58.578Z,3.67
2016-03-14T15:20:53.158Z,3.71
2016-03-14T15:21:52.880Z,3.74
2016-03-14T15:22:52.961Z,3.67
2016-03-14T15:23:52.948Z,3.78
2016-03-14T15:24:53.044Z,3.6
2016-03-14T15:25:52.875Z,3.6
2016-03-14T15:26:53.035Z,3.57
2016-03-14T15:27:52.834Z,3.69
2016-03-14T15:28:52.883Z,3.63
2016-03-14T15:29:52.776Z,3.67
2016-03-14T15:30:52.999Z,3.74
2016-03-14T15:31:52.798Z,3.75
2016-03-14T15:32:54.160Z,3.75
2016-03-14T15:33:52.710Z,3.74
2016-03-14T15:34:52.696Z,3.79
2016-03-14T15:35:52.762Z,3.76
2016-03-14T15:37:01.155Z,3.71
2016-03-14T15:37:52.720Z,3.67
2016-03-14T15:39:00.739Z,3.71
2016-03-14T15:39:52.631Z,3.66
2016-03-14T15:40:52.665Z,3.72
2016-03-14T15:41:52.856Z,3.67
2016-03-14T15:42:52.703Z,3.69
2016-03-14T15:43:52.878Z,3.69
2016-03-14T15:44:52.770Z,3.66
2016-03-14T15:45:52.617Z,3.72
2016-03-14T15:46:52.572Z,3.66
2016-03-14T15:47:52.591Z,3.66
2016-03-14T15:48:52.552Z,3.75
2016-03-14T15:49:52.617Z,3.74
2016-03-14T15:50:52.605Z,3.67
2016-03-14T15:51:55.310Z,3.74
2016-03-14T15:52:52.485Z,3.66
2016-03-14T15:53:52.550Z,3.74
2016-03-14T15:54:52.505Z,3.71
2016-03-14T15:55:52.492Z,3.66
2016-03-14T15:56:56.417Z,3.81
2016-03-14T15:57:52.466Z,3.6
2016-03-14T15:58:52.501Z,3.64
2016-03-14T16:00:00.737Z,3.56
2016-03-14T16:00:52.428Z,3.6
2016-03-14T16:01:52.415Z,3.6
2016-03-14T16:02:52.246Z,3.54
2016-03-14T16:03:52.373Z,3.57
2016-03-14T16:04:52.376Z,3.56
2016-03-14T16:05:52.348Z,3.56
2016-03-14T16:06:52.631Z,3.54
2016-03-14T16:07:52.462Z,3.49
2016-03-14T16:08:52.309Z,3.54
2016-03-14T16:09:52.296Z,3.48
2016-03-14T16:10:52.283Z,3.53
2016-03-14T16:12:52.866Z,3.53
2016-03-14T16:13:52.292Z,3.45
2016-03-14T16:14:52.606Z,3.39
2016-03-14T16:15:52.265Z,3.45
2016-03-14T16:16:52.345Z,3.37
2016-03-14T16:17:52.473Z,3.32
2016-03-14T16:18:52.444Z,3.32
2016-03-14T16:19:52.167Z,3.3
2016-03-14T16:20:52.185Z,3.2
2016-03-14T16:21:54.969Z,3.2
2016-03-14T16:22:51.925Z,3.09
2016-03-14T16:24:51.992Z,3.16
2016-03-14T16:25:52.417Z,3.11
2016-03-14T16:27:00.435Z,3.09
2016-03-14T16:27:52.188Z,3.17
2016-03-14T16:28:52.065Z,3.03
2016-03-14T16:29:52.130Z,2.98
2016-03-14T16:30:52.196Z,3.03
2016-03-14T16:31:52.308Z,2.95
2016-03-14T16:32:52.159Z,2.88
2016-03-14T16:33:52.131Z,2.91
2016-03-14T16:34:52.040Z,2.9
2016-03-14T16:35:52.104Z,2.84
2016-03-14T16:36:51.904Z,2.77
2016-03-14T16:37:52.110Z,2.8
2016-03-14T16:38:52.020Z,2.81
2016-03-14T16:39:51.975Z,2.73
2016-03-14T16:40:51.978Z,2.77
2016-03-14T16:41:52.074Z,2.69
2016-03-14T16:42:52.108Z,2.67
2016-03-14T16:43:51.923Z,2.58
2016-03-14T16:44:51.942Z,2.6
2016-03-14T16:45:51.913Z,2.52
2016-03-14T16:46:52.041Z,2.51
2016-03-14T16:47:51.934Z,2.54
2016-03-14T16:49:51.877Z,2.31
2016-03-14T16:50:51.895Z,2.4
2016-03-14T16:51:52.101Z,2.4
2016-03-14T16:53:00.775Z,2.33
2016-03-14T16:53:51.591Z,2.36
2016-03-14T16:54:51.952Z,2.33
2016-03-14T16:55:51.815Z,2.33
2016-03-14T16:56:51.786Z,2.24
2016-03-14T16:57:53.507Z,2.24
2016-03-14T16:58:51.777Z,2.18
2016-03-14T16:59:51.826Z,2.2
2016-03-14T17:00:51.719Z,2.15
2016-03-14T17:01:51.707Z,2.18
2016-03-14T17:02:51.694Z,2.13
2016-03-14T17:03:51.931Z,2.09
2016-03-14T17:04:51.825Z,2.04
2016-03-14T17:05:51.608Z,1.92
2016-03-14T17:07:59.787Z,1.94
2016-03-14T17:08:51.617Z,1.84
2016-03-14T17:09:51.620Z,1.87
2016-03-14T17:10:51.561Z,1.86
2016-03-14T17:11:51.611Z,1.71
2016-03-14T17:12:51.613Z,1.74
2016-03-14T17:13:51.616Z,1.71
2016-03-14T17:14:51.572Z,1.69
2016-03-14T17:15:58.949Z,1.66
2016-03-14T17:16:51.546Z,1.56
2016-03-14T17:17:54.487Z,1.58
2016-03-14T17:18:51.584Z,1.64
2016-03-14T17:19:51.711Z,1.54
2016-03-14T17:21:51.200Z,1.61
2016-03-14T17:22:51.422Z,1.47
2016-03-14T17:23:51.440Z,1.42
2016-03-14T17:24:51.522Z,1.47
2016-03-14T17:25:51.399Z,1.46
2016-03-14T17:26:51.402Z,1.39
2016-03-14T17:27:51.420Z,1.32
2016-03-14T17:28:52.813Z,1.39
2016-03-14T22:43:48.571Z,-1.53
2016-03-14T22:44:48.668Z,-1.49
2016-03-14T22:45:48.655Z,-1.56
2016-03-14T22:46:48.627Z,-1.6
2016-03-14T22:47:48.662Z,-1.55
2016-03-14T22:49:48.634Z,-1.55
2016-03-14T22:50:48.590Z,-1.49
2016-03-14T22:51:48.562Z,-1.58
2016-03-14T22:52:48.596Z,-1.6
2016-03-14T22:53:48.787Z,-1.58
2016-03-14T22:54:48.539Z,-1.6
2016-03-14T22:56:48.498Z,-1.56
2016-03-14T22:57:49.095Z,-1.63
2016-03-14T22:58:48.533Z,-1.55
2016-03-14T22:59:48.756Z,-1.64
2016-03-14T23:00:48.509Z,-1.6
2016-03-14T23:01:48.449Z,-1.55
2016-03-14T23:02:48.436Z,-1.68
2016-03-14T23:03:49.250Z,-1.66
2016-03-14T23:04:48.378Z,-1.63
2016-03-14T23:05:48.412Z,-1.63
2016-03-14T23:08:48.499Z,-1.56
2016-03-14T23:09:48.501Z,-1.52
2016-03-14T23:10:48.582Z,-1.53
2016-03-14T23:11:48.303Z,-1.56
2016-03-14T23:12:48.291Z,-1.55
2016-03-14T23:13:48.294Z,-1.45
2016-03-14T23:14:48.234Z,-1.56
2016-03-14T23:15:56.752Z,-1.45
2016-03-14T23:16:48.223Z,-1.55
2016-03-14T23:18:48.150Z,-1.49
2016-03-14T23:19:48.169Z,-1.48
2016-03-14T23:20:48.156Z,-1.58
2016-03-14T23:21:48.143Z,-1.48
